Big Hole Natl Battlefield, Montana
Current Conditions -  °F | °C
As of 5:55 AM on Saturday 20 Dec 2014 (Local Time) from KSMN Reporting Station
Overcast Overcast  
Wind Chill: -3°   Ceiling: 300
Heat Index: -3°   Visibility: 0.25mi
Dew Point: -3°   Wind: 0mph
Humidity: 100%   Direction: NA
Pressure: 30"   Gusts: NA
Location:  45.64°N, 113.65°W
Report Text: KSMN 201255Z AUTO 00000KT 1/4SM OVC003 M03/M03 A3000 RMK AO1
Loading
Personal Weather Stations






























Interactive Weather Map New forecast layout! Learn more

10-Day Weather Forecast

Advertisements
Track Severe Weather on mobile